sensor_id;sensor_type;location;lat;lon;timestamp;temperature;humidity
72320;SHT30;60269;52.502;16.732;2022-09-27T00:01:57;9.01;99.90
72320;SHT30;60269;52.502;16.732;2022-09-27T00:05:37;9.01;99.87
72320;SHT30;60269;52.502;16.732;2022-09-27T00:09:35;9.00;99.79
72320;SHT30;60269;52.502;16.732;2022-09-27T00:13:34;8.93;99.93
72320;SHT30;60269;52.502;16.732;2022-09-27T00:17:13;8.91;99.94
72320;SHT30;60269;52.502;16.732;2022-09-27T00:21:12;8.86;99.99
72320;SHT30;60269;52.502;16.732;2022-09-27T00:24:51;8.83;99.99
72320;SHT30;60269;52.502;16.732;2022-09-27T00:28:43;8.83;99.99
72320;SHT30;60269;52.502;16.732;2022-09-27T00:32:22;8.77;99.99
72320;SHT30;60269;52.502;16.732;2022-09-27T00:36:22;8.73;99.99
72320;SHT30;60269;52.502;16.732;2022-09-27T00:40:00;8.65;99.99
72320;SHT30;60269;52.502;16.732;2022-09-27T00:43:55;8.58;99.99
72320;SHT30;60269;52.502;16.732;2022-09-27T00:47:53;8.58;99.99
72320;SHT30;60269;52.502;16.732;2022-09-27T00:52:01;8.59;99.99
72320;SHT30;60269;52.502;16.732;2022-09-27T00:55:49;8.46;99.99
72320;SHT30;60269;52.502;16.732;2022-09-27T00:59:53;8.46;99.99
72320;SHT30;60269;52.502;16.732;2022-09-27T01:03:55;8.50;99.99
72320;SHT30;60269;52.502;16.732;2022-09-27T01:07:48;8.52;99.99
72320;SHT30;60269;52.502;16.732;2022-09-27T01:11:35;8.49;99.99
72320;SHT30;60269;52.502;16.732;2022-09-27T01:15:54;8.53;99.99
72320;SHT30;60269;52.502;16.732;2022-09-27T01:32:34;8.50;99.99
72320;SHT30;60269;52.502;16.732;2022-09-27T01:36:42;8.50;99.99
72320;SHT30;60269;52.502;16.732;2022-09-27T01:40:39;8.50;99.99
72320;SHT30;60269;52.502;16.732;2022-09-27T01:44:37;8.49;99.99
72320;SHT30;60269;52.502;16.732;2022-09-27T01:48:35;8.52;99.99
72320;SHT30;60269;52.502;16.732;2022-09-27T01:52:17;8.62;99.99
72320;SHT30;60269;52.502;16.732;2022-09-27T01:56:22;8.68;99.99
72320;SHT30;60269;52.502;16.732;2022-09-27T02:00:11;8.73;99.99
72320;SHT30;60269;52.502;16.732;2022-09-27T02:03:56;8.83;99.99
72320;SHT30;60269;52.502;16.732;2022-09-27T02:07:50;8.87;99.99
72320;SHT30;60269;52.502;16.732;2022-09-27T02:11:54;8.93;99.99
72320;SHT30;60269;52.502;16.732;2022-09-27T02:20:34;9.03;99.99
72320;SHT30;60269;52.502;16.732;2022-09-27T02:24:19;9.10;99.99
72320;SHT30;60269;52.502;16.732;2022-09-27T02:32:35;9.16;99.84
72320;SHT30;60269;52.502;16.732;2022-09-27T02:36:35;9.18;99.77
72320;SHT30;60269;52.502;16.732;2022-09-27T02:40:13;9.21;99.51
72320;SHT30;60269;52.502;16.732;2022-09-27T02:44:13;9.24;99.38
72320;SHT30;60269;52.502;16.732;2022-09-27T02:53:24;9.14;99.17
72320;SHT30;60269;52.502;16.732;2022-09-27T03:05:24;8.87;99.66
72320;SHT30;60269;52.502;16.732;2022-09-27T03:09:21;8.83;99.50
72320;SHT30;60269;52.502;16.732;2022-09-27T03:13:00;8.76;99.57
72320;SHT30;60269;52.502;16.732;2022-09-27T03:16:59;8.77;99.53
72320;SHT30;60269;52.502;16.732;2022-09-27T03:20:38;8.83;99.29
72320;SHT30;60269;52.502;16.732;2022-09-27T03:24:29;8.99;98.76
72320;SHT30;60269;52.502;16.732;2022-09-27T03:28:15;8.99;98.47
72320;SHT30;60269;52.502;16.732;2022-09-27T03:31:59;8.96;98.85
72320;SHT30;60269;52.502;16.732;2022-09-27T03:35:45;9.00;98.65
72320;SHT30;60269;52.502;16.732;2022-09-27T03:39:36;9.03;99.08
72320;SHT30;60269;52.502;16.732;2022-09-27T03:43:22;9.00;99.26
72320;SHT30;60269;52.502;16.732;2022-09-27T03:47:06;9.10;99.36
72320;SHT30;60269;52.502;16.732;2022-09-27T03:50:52;9.10;99.30
72320;SHT30;60269;52.502;16.732;2022-09-27T03:54:44;9.21;99.24
72320;SHT30;60269;52.502;16.732;2022-09-27T03:58:30;9.21;99.14
72320;SHT30;60269;52.502;16.732;2022-09-27T04:02:14;9.31;98.88
72320;SHT30;60269;52.502;16.732;2022-09-27T04:06:00;9.31;98.66
72320;SHT30;60269;52.502;16.732;2022-09-27T04:09:51;9.31;98.66
72320;SHT30;60269;52.502;16.732;2022-09-27T04:13:30;9.34;98.69
72320;SHT30;60269;52.502;16.732;2022-09-27T04:17:21;9.31;98.50
72320;SHT30;60269;52.502;16.732;2022-09-27T04:21:07;9.28;98.44
72320;SHT30;60269;52.502;16.732;2022-09-27T04:24:58;9.23;98.60
72320;SHT30;60269;52.502;16.732;2022-09-27T04:28:37;9.23;98.82
72320;SHT30;60269;52.502;16.732;2022-09-27T04:32:31;9.37;98.61
72320;SHT30;60269;52.502;16.732;2022-09-27T04:36:19;9.47;98.27
72320;SHT30;60269;52.502;16.732;2022-09-27T04:40:06;9.42;98.33
72320;SHT30;60269;52.502;16.732;2022-09-27T04:43:51;9.48;98.18
72320;SHT30;60269;52.502;16.732;2022-09-27T04:47:48;9.51;98.20
72320;SHT30;60269;52.502;16.732;2022-09-27T04:51:33;9.63;97.73
72320;SHT30;60269;52.502;16.732;2022-09-27T04:55:20;9.71;97.58
72320;SHT30;60269;52.502;16.732;2022-09-27T04:59:07;9.76;97.32
72320;SHT30;60269;52.502;16.732;2022-09-27T05:02:59;9.79;97.37
72320;SHT30;60269;52.502;16.732;2022-09-27T05:06:45;9.86;97.01
72320;SHT30;60269;52.502;16.732;2022-09-27T05:10:34;9.92;96.75
72320;SHT30;60269;52.502;16.732;2022-09-27T05:14:20;9.96;96.58
72320;SHT30;60269;52.502;16.732;2022-09-27T05:18:11;10.02;96.34
72320;SHT30;60269;52.502;16.732;2022-09-27T05:21:50;10.09;96.16
72320;SHT30;60269;52.502;16.732;2022-09-27T05:25:41;10.13;96.23
72320;SHT30;60269;52.502;16.732;2022-09-27T05:29:27;10.25;95.81
72320;SHT30;60269;52.502;16.732;2022-09-27T05:33:19;10.37;95.47
72320;SHT30;60269;52.502;16.732;2022-09-27T05:36:58;10.43;95.04
72320;SHT30;60269;52.502;16.732;2022-09-27T05:40:50;10.45;94.83
72320;SHT30;60269;52.502;16.732;2022-09-27T05:44:44;10.45;94.53
72320;SHT30;60269;52.502;16.732;2022-09-27T05:48:30;10.48;94.78
72320;SHT30;60269;52.502;16.732;2022-09-27T05:52:16;10.51;94.72
72320;SHT30;60269;52.502;16.732;2022-09-27T05:56:07;10.55;94.55
72320;SHT30;60269;52.502;16.732;2022-09-27T05:59:46;10.55;94.42
72320;SHT30;60269;52.502;16.732;2022-09-27T06:03:37;10.55;95.03
72320;SHT30;60269;52.502;16.732;2022-09-27T06:07:24;10.57;94.72
72320;SHT30;60269;52.502;16.732;2022-09-27T06:11:15;10.60;94.99
72320;SHT30;60269;52.502;16.732;2022-09-27T06:14:54;10.60;94.42
72320;SHT30;60269;52.502;16.732;2022-09-27T06:18:52;10.57;94.78
72320;SHT30;60269;52.502;16.732;2022-09-27T06:22:31;10.58;94.55
72320;SHT30;60269;52.502;16.732;2022-09-27T06:26:25;10.58;94.38
72320;SHT30;60269;52.502;16.732;2022-09-27T06:30:06;10.60;94.37
72320;SHT30;60269;52.502;16.732;2022-09-27T06:34:05;10.61;94.59
72320;SHT30;60269;52.502;16.732;2022-09-27T06:37:45;10.62;94.43
72320;SHT30;60269;52.502;16.732;2022-09-27T06:41:37;10.64;94.31
72320;SHT30;60269;52.502;16.732;2022-09-27T06:45:15;10.65;94.32
72320;SHT30;60269;52.502;16.732;2022-09-27T06:49:13;10.72;93.73
72320;SHT30;60269;52.502;16.732;2022-09-27T06:53:15;10.81;93.19
72320;SHT30;60269;52.502;16.732;2022-09-27T06:56:53;10.86;93.17
72320;SHT30;60269;52.502;16.732;2022-09-27T07:00:52;10.99;92.69
72320;SHT30;60269;52.502;16.732;2022-09-27T07:04:30;11.09;92.66
72320;SHT30;60269;52.502;16.732;2022-09-27T07:08:22;11.13;92.24
72320;SHT30;60269;52.502;16.732;2022-09-27T07:12:10;11.19;92.16
72320;SHT30;60269;52.502;16.732;2022-09-27T07:16:02;11.22;91.78
72320;SHT30;60269;52.502;16.732;2022-09-27T07:19:41;11.29;91.52
72320;SHT30;60269;52.502;16.732;2022-09-27T07:23:35;11.43;90.72
72320;SHT30;60269;52.502;16.732;2022-09-27T07:27:21;11.61;90.12
72320;SHT30;60269;52.502;16.732;2022-09-27T07:31:07;11.80;89.70
72320;SHT30;60269;52.502;16.732;2022-09-27T07:34:53;11.92;89.44
72320;SHT30;60269;52.502;16.732;2022-09-27T07:38:44;11.82;89.33
72320;SHT30;60269;52.502;16.732;2022-09-27T07:42:30;11.98;89.69
72320;SHT30;60269;52.502;16.732;2022-09-27T07:46:21;12.17;88.43
72320;SHT30;60269;52.502;16.732;2022-09-27T07:50:08;12.14;87.93
72320;SHT30;60269;52.502;16.732;2022-09-27T07:54:01;12.22;87.56
72320;SHT30;60269;52.502;16.732;2022-09-27T07:57:46;12.28;87.05
72320;SHT30;60269;52.502;16.732;2022-09-27T08:01:30;12.32;86.04
72320;SHT30;60269;52.502;16.732;2022-09-27T08:05:16;12.39;85.83
72320;SHT30;60269;52.502;16.732;2022-09-27T08:09:07;12.40;84.55
72320;SHT30;60269;52.502;16.732;2022-09-27T08:12:57;12.42;84.48
72320;SHT30;60269;52.502;16.732;2022-09-27T08:16:49;12.60;84.35
72320;SHT30;60269;52.502;16.732;2022-09-27T08:20:35;12.79;83.20
72320;SHT30;60269;52.502;16.732;2022-09-27T08:24:26;12.86;82.75
72320;SHT30;60269;52.502;16.732;2022-09-27T08:28:06;12.95;82.62
72320;SHT30;60269;52.502;16.732;2022-09-27T08:31:57;13.22;81.28
72320;SHT30;60269;52.502;16.732;2022-09-27T08:35:43;13.16;81.44
72320;SHT30;60269;52.502;16.732;2022-09-27T08:39:28;13.10;80.87
72320;SHT30;60269;52.502;16.732;2022-09-27T08:47:47;12.93;82.41
72320;SHT30;60269;52.502;16.732;2022-09-27T08:51:34;13.03;82.85
72320;SHT30;60269;52.502;16.732;2022-09-27T08:55:41;12.94;83.43
72320;SHT30;60269;52.502;16.732;2022-09-27T08:59:36;12.97;84.64
72320;SHT30;60269;52.502;16.732;2022-09-27T09:03:33;13.19;83.94
72320;SHT30;60269;52.502;16.732;2022-09-27T09:16:16;13.80;79.23
72320;SHT30;60269;52.502;16.732;2022-09-27T09:21:08;14.14;78.12
72320;SHT30;60269;52.502;16.732;2022-09-27T09:32:54;14.95;75.76
72320;SHT30;60269;52.502;16.732;2022-09-27T09:36:54;15.37;72.91
72320;SHT30;60269;52.502;16.732;2022-09-27T09:40:48;16.13;70.27
72320;SHT30;60269;52.502;16.732;2022-09-27T09:44:54;15.72;70.37
72320;SHT30;60269;52.502;16.732;2022-09-27T09:48:52;16.42;70.02
72320;SHT30;60269;52.502;16.732;2022-09-27T09:52:58;16.80;67.99
72320;SHT30;60269;52.502;16.732;2022-09-27T09:57:06;16.80;67.02
72320;SHT30;60269;52.502;16.732;2022-09-27T10:00:50;16.67;67.58
72320;SHT30;60269;52.502;16.732;2022-09-27T10:04:51;16.47;67.21
72320;SHT30;60269;52.502;16.732;2022-09-27T10:08:38;16.46;66.52
72320;SHT30;60269;52.502;16.732;2022-09-27T10:12:30;15.79;68.24
72320;SHT30;60269;52.502;16.732;2022-09-27T10:16:11;15.71;68.59
72320;SHT30;60269;52.502;16.732;2022-09-27T10:20:25;15.41;69.90
72320;SHT30;60269;52.502;16.732;2022-09-27T10:24:12;15.26;71.19
72320;SHT30;60269;52.502;16.732;2022-09-27T10:28:04;14.85;72.57
72320;SHT30;60269;52.502;16.732;2022-09-27T10:31:44;14.71;73.01
72320;SHT30;60269;52.502;16.732;2022-09-27T10:35:45;14.67;74.31
72320;SHT30;60269;52.502;16.732;2022-09-27T10:39:46;14.49;78.08
72320;SHT30;60269;52.502;16.732;2022-09-27T10:43:31;14.24;81.25
72320;SHT30;60269;52.502;16.732;2022-09-27T10:47:29;13.80;82.32
72320;SHT30;60269;52.502;16.732;2022-09-27T10:51:25;13.70;84.65
72320;SHT30;60269;52.502;16.732;2022-09-27T10:59:03;13.22;85.57
72320;SHT30;60269;52.502;16.732;2022-09-27T11:02:56;13.25;87.42
72320;SHT30;60269;52.502;16.732;2022-09-27T11:06:43;13.35;87.40
72320;SHT30;60269;52.502;16.732;2022-09-27T11:10:30;13.26;87.25
72320;SHT30;60269;52.502;16.732;2022-09-27T11:14:21;13.25;89.28
72320;SHT30;60269;52.502;16.732;2022-09-27T11:22:57;13.73;85.68
72320;SHT30;60269;52.502;16.732;2022-09-27T11:26:52;14.31;83.27
72320;SHT30;60269;52.502;16.732;2022-09-27T11:47:08;15.27;78.79
72320;SHT30;60269;52.502;16.732;2022-09-27T11:55:18;15.33;77.32
72320;SHT30;60269;52.502;16.732;2022-09-27T12:03:13;14.55;77.95
72320;SHT30;60269;52.502;16.732;2022-09-27T12:07:21;14.55;77.02
72320;SHT30;60269;52.502;16.732;2022-09-27T12:11:26;14.75;77.80
72320;SHT30;60269;52.502;16.732;2022-09-27T12:15:28;14.44;77.99
72320;SHT30;60269;52.502;16.732;2022-09-27T12:19:22;14.25;78.20
72320;SHT30;60269;52.502;16.732;2022-09-27T12:23:14;14.17;79.49
72320;SHT30;60269;52.502;16.732;2022-09-27T12:27:07;14.17;79.60
72320;SHT30;60269;52.502;16.732;2022-09-27T12:35:48;13.93;80.07
72320;SHT30;60269;52.502;16.732;2022-09-27T12:39:52;13.91;80.76
72320;SHT30;60269;52.502;16.732;2022-09-27T12:43:42;13.84;79.34
72320;SHT30;60269;52.502;16.732;2022-09-27T12:51:32;13.94;79.18
72320;SHT30;60269;52.502;16.732;2022-09-27T12:55:53;14.01;78.29
72320;SHT30;60269;52.502;16.732;2022-09-27T13:04:18;14.75;78.06
72320;SHT30;60269;52.502;16.732;2022-09-27T13:08:25;15.54;74.27
72320;SHT30;60269;52.502;16.732;2022-09-27T13:12:21;15.91;73.52
72320;SHT30;60269;52.502;16.732;2022-09-27T13:16:07;15.41;74.91
72320;SHT30;60269;52.502;16.732;2022-09-27T13:19:54;15.79;73.36
72320;SHT30;60269;52.502;16.732;2022-09-27T13:27:38;15.27;76.19
72320;SHT30;60269;52.502;16.732;2022-09-27T13:48:45;14.85;76.83
72320;SHT30;60269;52.502;16.732;2022-09-27T13:52:32;14.71;78.24
72320;SHT30;60269;52.502;16.732;2022-09-27T14:00:40;14.42;79.17
72320;SHT30;60269;52.502;16.732;2022-09-27T14:04:32;14.17;80.13
72320;SHT30;60269;52.502;16.732;2022-09-27T14:08:28;13.96;80.43
72320;SHT30;60269;52.502;16.732;2022-09-27T14:12:20;13.83;81.44
72320;SHT30;60269;52.502;16.732;2022-09-27T14:16:06;13.83;81.79
72320;SHT30;60269;52.502;16.732;2022-09-27T14:19:51;13.74;81.91
72320;SHT30;60269;52.502;16.732;2022-09-27T14:23:43;13.69;81.83
72320;SHT30;60269;52.502;16.732;2022-09-27T14:27:26;13.65;81.87
72320;SHT30;60269;52.502;16.732;2022-09-27T14:31:26;13.63;82.58
72320;SHT30;60269;52.502;16.732;2022-09-27T14:35:13;13.61;81.95
72320;SHT30;60269;52.502;16.732;2022-09-27T14:39:31;13.56;81.46
72320;SHT30;60269;52.502;16.732;2022-09-27T14:43:31;13.53;81.33
72320;SHT30;60269;52.502;16.732;2022-09-27T14:51:23;13.59;81.29
72320;SHT30;60269;52.502;16.732;2022-09-27T14:55:26;13.61;81.05
72320;SHT30;60269;52.502;16.732;2022-09-27T14:59:27;13.58;81.12
72320;SHT30;60269;52.502;16.732;2022-09-27T15:03:24;13.58;81.86
72320;SHT30;60269;52.502;16.732;2022-09-27T15:07:30;13.49;82.08
72320;SHT30;60269;52.502;16.732;2022-09-27T15:11:08;13.45;82.21
72320;SHT30;60269;52.502;16.732;2022-09-27T15:15:14;13.46;81.92
72320;SHT30;60269;52.502;16.732;2022-09-27T15:19:05;13.42;81.60
72320;SHT30;60269;52.502;16.732;2022-09-27T15:23:04;13.45;80.87
72320;SHT30;60269;52.502;16.732;2022-09-27T15:26:45;13.41;80.76
72320;SHT30;60269;52.502;16.732;2022-09-27T15:30:56;13.38;80.55
72320;SHT30;60269;52.502;16.732;2022-09-27T15:34:56;13.35;80.77
72320;SHT30;60269;52.502;16.732;2022-09-27T15:38:45;13.28;80.94
72320;SHT30;60269;52.502;16.732;2022-09-27T15:42:55;13.18;81.04
72320;SHT30;60269;52.502;16.732;2022-09-27T15:46:41;13.18;81.40
72320;SHT30;60269;52.502;16.732;2022-09-27T15:50:33;13.14;81.68
72320;SHT30;60269;52.502;16.732;2022-09-27T15:54:12;13.05;82.04
72320;SHT30;60269;52.502;16.732;2022-09-27T15:58:16;13.05;82.22
72320;SHT30;60269;52.502;16.732;2022-09-27T16:02:16;12.95;82.56
72320;SHT30;60269;52.502;16.732;2022-09-27T16:05:56;12.93;82.80
72320;SHT30;60269;52.502;16.732;2022-09-27T16:09:56;12.91;82.90
72320;SHT30;60269;52.502;16.732;2022-09-27T16:13:55;12.94;83.14
72320;SHT30;60269;52.502;16.732;2022-09-27T16:17:33;12.91;83.14
72320;SHT30;60269;52.502;16.732;2022-09-27T16:21:33;12.87;83.34
72320;SHT30;60269;52.502;16.732;2022-09-27T16:25:11;12.77;85.56
72320;SHT30;60269;52.502;16.732;2022-09-27T16:29:11;12.43;89.18
72320;SHT30;60269;52.502;16.732;2022-09-27T16:32:57;12.17;90.75
72320;SHT30;60269;52.502;16.732;2022-09-27T16:36:42;12.08;91.44
72320;SHT30;60269;52.502;16.732;2022-09-27T16:40:27;11.99;91.86
72320;SHT30;60269;52.502;16.732;2022-09-27T16:44:26;12.09;91.51
72320;SHT30;60269;52.502;16.732;2022-09-27T16:48:04;11.34;90.33
72320;SHT30;60269;52.502;16.732;2022-09-27T16:51:56;10.07;94.25
72320;SHT30;60269;52.502;16.732;2022-09-27T16:55:38;9.89;95.63
72320;SHT30;60269;52.502;16.732;2022-09-27T16:59:37;9.79;95.96
72320;SHT30;60269;52.502;16.732;2022-09-27T17:03:37;9.75;96.26
72320;SHT30;60269;52.502;16.732;2022-09-27T17:07:16;9.81;96.18
72320;SHT30;60269;52.502;16.732;2022-09-27T17:11:16;9.87;96.42
72320;SHT30;60269;52.502;16.732;2022-09-27T17:14:55;9.87;96.84
72320;SHT30;60269;52.502;16.732;2022-09-27T17:18:48;9.89;97.21
72320;SHT30;60269;52.502;16.732;2022-09-27T17:22:26;9.87;97.46
72320;SHT30;60269;52.502;16.732;2022-09-27T17:26:25;9.85;97.71
72320;SHT30;60269;52.502;16.732;2022-09-27T17:30:07;9.82;97.77
72320;SHT30;60269;52.502;16.732;2022-09-27T17:34:09;9.78;97.57
72320;SHT30;60269;52.502;16.732;2022-09-27T17:37:50;9.78;97.54
72320;SHT30;60269;52.502;16.732;2022-09-27T17:41:42;9.85;97.53
72320;SHT30;60269;52.502;16.732;2022-09-27T17:45:20;9.85;97.67
72320;SHT30;60269;52.502;16.732;2022-09-27T17:49:19;9.87;97.83
72320;SHT30;60269;52.502;16.732;2022-09-27T17:53:15;9.86;97.91
72320;SHT30;60269;52.502;16.732;2022-09-27T17:57:07;9.89;97.74
72320;SHT30;60269;52.502;16.732;2022-09-27T18:00:45;9.90;97.57
72320;SHT30;60269;52.502;16.732;2022-09-27T18:04:45;9.85;97.76
72320;SHT30;60269;52.502;16.732;2022-09-27T18:08:44;9.78;97.79
72320;SHT30;60269;52.502;16.732;2022-09-27T18:12:22;9.68;98.04
72320;SHT30;60269;52.502;16.732;2022-09-27T18:16:23;9.69;98.28
72320;SHT30;60269;52.502;16.732;2022-09-27T18:20:06;9.78;98.24
72320;SHT30;60269;52.502;16.732;2022-09-27T18:23:59;9.85;98.21
72320;SHT30;60269;52.502;16.732;2022-09-27T18:27:39;9.95;98.06
72320;SHT30;60269;52.502;16.732;2022-09-27T18:31:41;10.00;98.05
72320;SHT30;60269;52.502;16.732;2022-09-27T18:35:40;10.06;97.84
72320;SHT30;60269;52.502;16.732;2022-09-27T18:39:18;10.03;97.90
72320;SHT30;60269;52.502;16.732;2022-09-27T18:43:17;10.00;98.05
72320;SHT30;60269;52.502;16.732;2022-09-27T18:47:22;10.05;98.05
72320;SHT30;60269;52.502;16.732;2022-09-27T18:51:25;10.12;97.85
72320;SHT30;60269;52.502;16.732;2022-09-27T18:55:03;10.13;97.88
72320;SHT30;60269;52.502;16.732;2022-09-27T18:59:09;10.12;97.95
72320;SHT30;60269;52.502;16.732;2022-09-27T19:03:12;10.12;97.81
72320;SHT30;60269;52.502;16.732;2022-09-27T19:07:11;10.12;97.69
72320;SHT30;60269;52.502;16.732;2022-09-27T19:10:49;10.12;97.81
72320;SHT30;60269;52.502;16.732;2022-09-27T19:14:49;10.09;98.03
72320;SHT30;60269;52.502;16.732;2022-09-27T19:18:48;10.10;97.97
72320;SHT30;60269;52.502;16.732;2022-09-27T19:22:28;10.16;97.94
72320;SHT30;60269;52.502;16.732;2022-09-27T19:26:27;10.20;97.86
72320;SHT30;60269;52.502;16.732;2022-09-27T19:30:12;10.14;97.73
72320;SHT30;60269;52.502;16.732;2022-09-27T19:34:04;10.06;97.99
72320;SHT30;60269;52.502;16.732;2022-09-27T19:37:49;10.03;98.23
72320;SHT30;60269;52.502;16.732;2022-09-27T19:41:41;10.12;98.13
72320;SHT30;60269;52.502;16.732;2022-09-27T19:45:19;10.07;98.03
72320;SHT30;60269;52.502;16.732;2022-09-27T19:49:12;9.99;98.45
72320;SHT30;60269;52.502;16.732;2022-09-27T19:52:57;10.06;98.39
72320;SHT30;60269;52.502;16.732;2022-09-27T19:56:44;10.13;98.14
72320;SHT30;60269;52.502;16.732;2022-09-27T20:00:29;10.14;97.63
72320;SHT30;60269;52.502;16.732;2022-09-27T20:04:21;10.14;97.68
72320;SHT30;60269;52.502;16.732;2022-09-27T20:08:06;10.12;97.30
72320;SHT30;60269;52.502;16.732;2022-09-27T20:11:51;10.14;97.09
72320;SHT30;60269;52.502;16.732;2022-09-27T20:15:36;10.12;96.82
72320;SHT30;60269;52.502;16.732;2022-09-27T20:19:28;10.12;97.01
72320;SHT30;60269;52.502;16.732;2022-09-27T20:23:06;10.03;97.02
72320;SHT30;60269;52.502;16.732;2022-09-27T20:26:58;10.03;97.25
72320;SHT30;60269;52.502;16.732;2022-09-27T20:30:54;10.06;97.32
72320;SHT30;60269;52.502;16.732;2022-09-27T20:34:39;10.05;97.35
72320;SHT30;60269;52.502;16.732;2022-09-27T20:38:24;10.09;96.91
72320;SHT30;60269;52.502;16.732;2022-09-27T20:42:16;10.09;96.85
72320;SHT30;60269;52.502;16.732;2022-09-27T20:46:03;10.10;97.04
72320;SHT30;60269;52.502;16.732;2022-09-27T20:49:56;10.13;97.23
72320;SHT30;60269;52.502;16.732;2022-09-27T20:53:42;10.10;96.87
72320;SHT30;60269;52.502;16.732;2022-09-27T20:57:28;10.13;96.82
72320;SHT30;60269;52.502;16.732;2022-09-27T21:01:33;10.12;96.92
72320;SHT30;60269;52.502;16.732;2022-09-27T21:05:25;10.12;96.81
72320;SHT30;60269;52.502;16.732;2022-09-27T21:09:11;10.10;96.81
72320;SHT30;60269;52.502;16.732;2022-09-27T21:13:03;10.09;96.68
72320;SHT30;60269;52.502;16.732;2022-09-27T21:16:48;10.09;96.39
72320;SHT30;60269;52.502;16.732;2022-09-27T21:20:40;10.02;96.73
72320;SHT30;60269;52.502;16.732;2022-09-27T21:24:18;10.00;97.00
72320;SHT30;60269;52.502;16.732;2022-09-27T21:28:10;9.93;97.12
72320;SHT30;60269;52.502;16.732;2022-09-27T21:31:48;9.93;97.03
72320;SHT30;60269;52.502;16.732;2022-09-27T21:35:40;9.95;96.62
72320;SHT30;60269;52.502;16.732;2022-09-27T21:39:25;9.87;96.74
72320;SHT30;60269;52.502;16.732;2022-09-27T21:43:10;9.79;97.07
72320;SHT30;60269;52.502;16.732;2022-09-27T21:46:55;9.79;97.07
72320;SHT30;60269;52.502;16.732;2022-09-27T21:50:47;9.75;96.83
72320;SHT30;60269;52.502;16.732;2022-09-27T21:54:26;9.71;96.67
72320;SHT30;60269;52.502;16.732;2022-09-27T21:58:18;9.66;96.85
72320;SHT30;60269;52.502;16.732;2022-09-27T22:02:06;9.61;97.14
72320;SHT30;60269;52.502;16.732;2022-09-27T22:05:51;9.61;97.15
72320;SHT30;60269;52.502;16.732;2022-09-27T22:09:36;9.52;96.86
72320;SHT30;60269;52.502;16.732;2022-09-27T22:13:28;9.48;97.07
72320;SHT30;60269;52.502;16.732;2022-09-27T22:17:13;9.45;97.33
72320;SHT30;60269;52.502;16.732;2022-09-27T22:21:02;9.39;97.53
72320;SHT30;60269;52.502;16.732;2022-09-27T22:24:48;9.37;97.61
72320;SHT30;60269;52.502;16.732;2022-09-27T22:28:40;9.32;97.99
72320;SHT30;60269;52.502;16.732;2022-09-27T22:32:19;9.30;97.55
72320;SHT30;60269;52.502;16.732;2022-09-27T22:36:11;9.23;97.52
72320;SHT30;60269;52.502;16.732;2022-09-27T22:39:56;9.07;97.78
72320;SHT30;60269;52.502;16.732;2022-09-27T22:43:41;8.91;98.12
72320;SHT30;60269;52.502;16.732;2022-09-27T22:47:26;8.79;98.40
72320;SHT30;60269;52.502;16.732;2022-09-27T22:51:26;8.75;98.55
72320;SHT30;60269;52.502;16.732;2022-09-27T22:55:11;8.66;98.49
72320;SHT30;60269;52.502;16.732;2022-09-27T22:58:56;8.65;98.43
72320;SHT30;60269;52.502;16.732;2022-09-27T23:02:41;8.63;98.22
72320;SHT30;60269;52.502;16.732;2022-09-27T23:06:26;8.48;98.53
72320;SHT30;60269;52.502;16.732;2022-09-27T23:10:11;8.41;98.68
72320;SHT30;60269;52.502;16.732;2022-09-27T23:14:04;8.41;98.60
72320;SHT30;60269;52.502;16.732;2022-09-27T23:17:50;8.45;98.04
72320;SHT30;60269;52.502;16.732;2022-09-27T23:21:42;8.48;97.87
72320;SHT30;60269;52.502;16.732;2022-09-27T23:25:27;8.53;97.56
72320;SHT30;60269;52.502;16.732;2022-09-27T23:29:12;8.49;97.61
72320;SHT30;60269;52.502;16.732;2022-09-27T23:32:57;8.50;97.36
72320;SHT30;60269;52.502;16.732;2022-09-27T23:36:42;8.52;97.58
72320;SHT30;60269;52.502;16.732;2022-09-27T23:40:27;8.53;97.04
72320;SHT30;60269;52.502;16.732;2022-09-27T23:44:20;8.49;97.30
72320;SHT30;60269;52.502;16.732;2022-09-27T23:47:59;8.49;97.22
72320;SHT30;60269;52.502;16.732;2022-09-27T23:51:51;8.38;97.20
72320;SHT30;60269;52.502;16.732;2022-09-27T23:55:36;8.17;97.28
72320;SHT30;60269;52.502;16.732;2022-09-27T23:59:28;7.93;97.85
